Time;durP1;ratioP1;P1;durP2;ratioP2;P2;SDS_P1;SDS_P2;PMS_P1;PMS_P2;Temp;Humidity;BMP_temperature;BMP_pressure;BME280_temperature;BME280_humidity;BME280_pressure;Samples;Min_cycle;Max_cycle;Signal;HPM_P1;HPM_P2
2021/11/23 00:00:13;;;;;;;8.90;8.00;;;;;21.60;101897.00;;;;2048036;29;20203;-46
2021/11/23 00:01:15;;;;;;;9.50;8.50;;;;;21.60;101898.00;;;;2046979;28;20249;-46
2021/11/23 00:02:15;;;;;;;8.80;8.00;;;;;21.60;101897.00;;;;2048013;28;20207;-46
2021/11/23 00:03:17;;;;;;;8.50;7.50;;;;;21.60;101901.00;;;;2047938;29;20219;-48
2021/11/23 00:04:17;;;;;;;10.00;8.25;;;;;21.60;101891.00;;;;2048131;28;20184;-47
2021/11/23 00:05:18;;;;;;;8.87;8.07;;;;;21.60;101890.00;;;;2048003;28;20192;-47
2021/11/23 00:06:18;;;;;;;8.57;7.77;;;;;21.50;101888.00;;;;2048005;29;20223;-48
2021/11/23 00:07:19;;;;;;;9.23;8.30;;;;;21.60;101892.00;;;;2048102;29;20243;-47
2021/11/23 00:08:20;;;;;;;8.27;7.47;;;;;21.60;101895.00;;;;2048141;28;20188;-47
2021/11/23 00:09:21;;;;;;;8.35;7.55;;;;;21.60;101880.00;;;;2047933;28;20268;-48
2021/11/23 00:10:21;;;;;;;8.63;7.83;;;;;21.60;101886.00;;;;2047443;29;20185;-48
2021/11/23 00:11:22;;;;;;;8.23;7.43;;;;;21.60;101880.00;;;;2047711;29;20189;-46
2021/11/23 00:12:23;;;;;;;9.97;7.83;;;;;21.50;101887.00;;;;2047863;28;20599;-47
2021/11/23 00:13:26;;;;;;;9.52;8.13;;;;;21.60;101871.00;;;;2047843;28;20271;-47
2021/11/23 00:14:27;;;;;;;9.40;8.23;;;;;21.60;101870.00;;;;2039746;29;20193;-48
2021/11/23 00:15:27;;;;;;;7.83;7.13;;;;;21.60;101874.00;;;;2039392;29;20275;-47
2021/11/23 00:16:28;;;;;;;8.10;7.23;;;;;21.50;101878.00;;;;2047879;28;20235;-46
2021/11/23 00:17:28;;;;;;;7.60;6.90;;;;;21.50;101883.00;;;;2047933;28;20190;-47
2021/11/23 00:18:29;;;;;;;8.30;7.60;;;;;21.50;101883.00;;;;2054933;28;20238;-48
2021/11/23 00:19:29;;;;;;;7.03;6.43;;;;;21.50;101886.00;;;;2055148;28;20215;-49
2021/11/23 00:20:30;;;;;;;8.07;7.23;;;;;21.50;101885.00;;;;2047157;28;20223;-47
2021/11/23 00:21:30;;;;;;;9.50;7.17;;;;;21.50;101887.00;;;;2047594;28;20176;-46
2021/11/23 00:22:33;;;;;;;7.50;6.80;;;;;21.60;101892.00;;;;2047797;28;20192;-46
2021/11/23 00:23:34;;;;;;;8.13;7.10;;;;;21.50;101889.00;;;;2047354;29;20191;-46
2021/11/23 00:24:35;;;;;;;7.80;7.00;;;;;21.60;101895.00;;;;2036082;29;20185;-46
2021/11/23 00:25:35;;;;;;;9.17;7.10;;;;;21.60;101888.00;;;;2047355;28;20184;-47
2021/11/23 00:26:36;;;;;;;7.23;6.57;;;;;21.60;101895.00;;;;2047959;29;20543;-47
2021/11/23 00:27:36;;;;;;;7.33;6.63;;;;;21.60;101892.00;;;;2047532;29;20279;-46
2021/11/23 00:28:36;;;;;;;7.43;6.73;;;;;21.60;101885.00;;;;2047808;29;20176;-47
2021/11/23 00:29:37;;;;;;;7.70;6.90;;;;;21.60;101890.00;;;;2047974;28;20177;-46
2021/11/23 00:30:38;;;;;;;7.80;7.00;;;;;21.60;101887.00;;;;2046920;29;20177;-48
2021/11/23 00:31:38;;;;;;;7.13;6.53;;;;;21.60;101893.00;;;;2047777;28;20172;-47
2021/11/23 00:32:40;;;;;;;7.23;6.53;;;;;21.50;101891.00;;;;2047467;29;20193;-47
2021/11/23 00:33:42;;;;;;;7.43;6.72;;;;;21.60;101890.00;;;;2047230;29;20215;-47
2021/11/23 00:34:42;;;;;;;7.07;6.47;;;;;21.60;101879.00;;;;2047276;29;20254;-48
2021/11/23 00:35:43;;;;;;;7.43;6.73;;;;;21.60;101891.00;;;;2047705;28;20278;-47
2021/11/23 00:36:43;;;;;;;7.40;6.70;;;;;21.60;101891.00;;;;2048008;28;20183;-46
2021/11/23 00:37:47;;;;;;;8.00;7.37;;;;;21.60;101875.00;;;;2047858;29;20188;-48
2021/11/23 00:38:47;;;;;;;7.32;6.72;;;;;21.60;101880.00;;;;2046985;29;20758;-46
2021/11/23 00:39:48;;;;;;;7.57;6.87;;;;;21.50;101878.00;;;;2047546;28;20181;-48
2021/11/23 00:40:48;;;;;;;7.57;6.83;;;;;21.50;101875.00;;;;2046967;29;20675;-49
2021/11/23 00:41:48;;;;;;;7.60;6.90;;;;;21.50;101877.00;;;;2047105;29;20551;-47
2021/11/23 00:42:49;;;;;;;7.03;6.43;;;;;21.50;101872.00;;;;2038950;29;20204;-46
2021/11/23 00:43:49;;;;;;;6.77;6.17;;;;;21.50;101873.00;;;;2047137;29;20274;-47
2021/11/23 00:44:50;;;;;;;7.60;6.90;;;;;21.50;101877.00;;;;2047763;29;20184;-46
2021/11/23 00:45:50;;;;;;;6.70;6.10;;;;;21.50;101877.00;;;;2047667;28;20204;-49
2021/11/23 00:46:50;;;;;;;7.80;7.00;;;;;21.50;101875.00;;;;2047465;29;20559;-48
2021/11/23 00:47:51;;;;;;;6.83;6.23;;;;;21.50;101869.00;;;;2047828;28;20636;-46
2021/11/23 00:48:51;;;;;;;8.27;7.33;;;;;21.40;101864.00;;;;2046848;29;20231;-46
2021/11/23 00:49:52;;;;;;;8.00;7.30;;;;;21.50;101878.00;;;;2046868;29;20212;-46
2021/11/23 00:50:52;;;;;;;9.50;6.77;;;;;21.50;101873.00;;;;2046802;28;20184;-48
2021/11/23 00:51:52;;;;;;;7.00;6.40;;;;;21.50;101873.00;;;;2047761;29;20231;-48
2021/11/23 00:52:53;;;;;;;7.30;6.07;;;;;21.50;101878.00;;;;2047281;29;20692;-48
2021/11/23 00:53:53;;;;;;;7.13;6.53;;;;;21.50;101872.00;;;;2047555;28;20188;-47
2021/11/23 00:54:54;;;;;;;7.13;6.53;;;;;21.50;101882.00;;;;2047588;29;20184;-47
2021/11/23 00:55:56;;;;;;;7.43;6.72;;;;;21.50;101881.00;;;;2047693;28;20184;-48
2021/11/23 00:56:56;;;;;;;7.05;6.45;;;;;21.50;101878.00;;;;2047826;28;20204;-46
2021/11/23 00:57:57;;;;;;;6.93;6.33;;;;;21.40;101879.00;;;;2047691;28;20238;-47
2021/11/23 00:58:57;;;;;;;6.93;6.33;;;;;21.40;101882.00;;;;2047088;29;20255;-48
2021/11/23 00:59:57;;;;;;;7.30;6.70;;;;;21.40;101876.00;;;;2046939;29;20184;-48
2021/11/23 01:00:58;;;;;;;6.50;5.90;;;;;21.50;101878.00;;;;2046839;29;20181;-47
2021/11/23 01:01:58;;;;;;;6.97;6.27;;;;;21.40;101875.00;;;;2047227;28;20195;-49
2021/11/23 01:02:58;;;;;;;6.93;6.33;;;;;21.40;101879.00;;;;2047234;28;20247;-47
2021/11/23 01:04:00;;;;;;;7.00;6.30;;;;;21.40;101869.00;;;;2047075;28;20172;-48
2021/11/23 01:05:00;;;;;;;6.97;6.28;;;;;21.40;101860.00;;;;2047623;28;20749;-47
2021/11/23 01:06:01;;;;;;;5.93;5.33;;;;;21.40;101856.00;;;;2047487;28;20223;-46
2021/11/23 01:07:01;;;;;;;7.23;6.63;;;;;21.40;101861.00;;;;2047690;28;20188;-46
2021/11/23 01:08:01;;;;;;;6.83;6.23;;;;;21.40;101873.00;;;;2047601;29;20188;-46
2021/11/23 01:09:02;;;;;;;6.87;6.27;;;;;21.50;101851.00;;;;2047569;29;20194;-46
2021/11/23 01:10:03;;;;;;;6.10;5.60;;;;;21.40;101864.00;;;;2047429;28;20205;-46
2021/11/23 01:11:03;;;;;;;6.43;5.90;;;;;21.50;101851.00;;;;2046682;28;20276;-48
2021/11/23 01:12:04;;;;;;;6.73;6.23;;;;;21.40;101853.00;;;;2047494;29;20301;-49
2021/11/23 01:13:05;;;;;;;6.77;6.17;;;;;21.40;101858.00;;;;2047295;28;20209;-46
2021/11/23 01:14:07;;;;;;;9.50;6.33;;;;;21.40;101860.00;;;;2047138;29;21177;-46
2021/11/23 01:15:09;;;;;;;9.05;5.95;;;;;21.40;101858.00;;;;2047515;28;20638;-48
2021/11/23 01:16:11;;;;;;;6.85;6.13;;;;;21.40;101855.00;;;;2046595;29;20192;-46
2021/11/23 01:17:11;;;;;;;6.47;5.95;;;;;21.40;101853.00;;;;2039249;29;20189;-45
2021/11/23 01:18:11;;;;;;;6.90;5.37;;;;;21.40;101857.00;;;;2046773;29;20600;-46
2021/11/23 01:19:12;;;;;;;6.33;5.63;;;;;21.40;101852.00;;;;2047571;29;20204;-45
2021/11/23 01:20:13;;;;;;;6.50;5.90;;;;;21.40;101856.00;;;;2046671;29;20534;-48
2021/11/23 01:21:14;;;;;;;7.00;6.40;;;;;21.40;101858.00;;;;2045911;29;20227;-45
2021/11/23 01:22:14;;;;;;;6.55;5.75;;;;;21.40;101858.00;;;;2054772;28;20184;-47
2021/11/23 01:23:15;;;;;;;6.53;5.93;;;;;21.40;101865.00;;;;2047157;29;20704;-47
2021/11/23 01:24:15;;;;;;;6.70;6.10;;;;;21.40;101864.00;;;;2047476;29;20184;-48
2021/11/23 01:25:16;;;;;;;6.43;5.70;;;;;21.40;101854.00;;;;2043775;29;20362;-46
2021/11/23 01:26:16;;;;;;;6.20;5.60;;;;;21.40;101863.00;;;;2046844;29;20202;-46
2021/11/23 01:27:16;;;;;;;6.53;5.93;;;;;21.40;101857.00;;;;2046711;29;20181;-46
2021/11/23 01:28:17;;;;;;;6.33;5.67;;;;;21.40;101870.00;;;;2046851;29;20641;-47
2021/11/23 01:29:17;;;;;;;6.40;5.80;;;;;21.40;101865.00;;;;2046822;29;20190;-48
2021/11/23 01:30:18;;;;;;;6.27;5.77;;;;;21.30;101871.00;;;;2046390;29;20213;-46
2021/11/23 01:31:18;;;;;;;6.40;5.73;;;;;21.40;101861.00;;;;2046102;29;20428;-48
2021/11/23 01:32:18;;;;;;;6.50;5.90;;;;;21.30;101859.00;;;;2047236;28;20180;-48
2021/11/23 01:33:19;;;;;;;6.97;6.27;;;;;21.30;101869.00;;;;2047336;29;20754;-48
2021/11/23 01:34:20;;;;;;;6.70;6.10;;;;;21.30;101870.00;;;;2047376;28;20671;-48
2021/11/23 01:35:20;;;;;;;5.85;5.35;;;;;21.30;101869.00;;;;2047412;28;20239;-45
2021/11/23 01:36:21;;;;;;;6.60;6.00;;;;;21.30;101870.00;;;;2047304;28;20728;-46
2021/11/23 01:37:22;;;;;;;5.77;5.27;;;;;21.30;101863.00;;;;2047412;28;20573;-46
2021/11/23 01:38:22;;;;;;;6.20;5.60;;;;;21.30;101859.00;;;;2054347;28;21006;-47
2021/11/23 01:39:25;;;;;;;6.17;5.60;;;;;21.30;101862.00;;;;2054722;28;20220;-45
2021/11/23 01:40:25;;;;;;;7.25;5.75;;;;;21.30;101861.00;;;;2045899;28;20185;-47
2021/11/23 01:41:26;;;;;;;6.03;5.43;;;;;21.30;101863.00;;;;2046623;29;20192;-48
2021/11/23 01:42:26;;;;;;;6.40;5.80;;;;;21.30;101860.00;;;;2047339;28;20180;-47
2021/11/23 01:43:26;;;;;;;6.77;6.17;;;;;21.30;101870.00;;;;2047042;29;20224;-46
2021/11/23 01:44:28;;;;;;;6.20;5.70;;;;;21.30;101865.00;;;;2047207;29;20180;-45
2021/11/23 01:45:28;;;;;;;6.35;5.75;;;;;21.30;101862.00;;;;2046854;28;20185;-47
2021/11/23 01:46:28;;;;;;;6.00;5.50;;;;;21.20;101865.00;;;;2047251;29;20243;-47
2021/11/23 01:47:29;;;;;;;5.70;5.20;;;;;21.30;101871.00;;;;2047209;29;20278;-46
2021/11/23 01:48:30;;;;;;;6.63;6.00;;;;;21.30;101869.00;;;;2047319;29;20255;-47
2021/11/23 01:49:31;;;;;;;5.75;5.25;;;;;21.20;101872.00;;;;2046957;28;20428;-46
2021/11/23 01:50:31;;;;;;;6.27;5.77;;;;;21.30;101872.00;;;;2046467;28;20204;-45
2021/11/23 01:51:32;;;;;;;6.33;5.23;;;;;21.20;101861.00;;;;2046577;29;20207;-47
2021/11/23 01:52:32;;;;;;;5.60;5.10;;;;;21.30;101864.00;;;;2030967;29;20224;-46
2021/11/23 01:53:33;;;;;;;6.10;5.50;;;;;21.30;101872.00;;;;2038634;29;20681;-46
2021/11/23 01:54:34;;;;;;;5.57;5.10;;;;;21.30;101864.00;;;;2047258;28;20191;-46
2021/11/23 01:55:35;;;;;;;5.35;4.85;;;;;21.30;101864.00;;;;2047350;29;20187;-48
2021/11/23 01:56:36;;;;;;;5.70;5.20;;;;;21.30;101862.00;;;;2047251;28;20196;-47
2021/11/23 01:57:36;;;;;;;5.47;4.97;;;;;21.30;101862.00;;;;2047256;28;20271;-46
2021/11/23 01:58:37;;;;;;;5.73;5.23;;;;;21.30;101869.00;;;;2047266;28;20195;-48
2021/11/23 01:59:38;;;;;;;6.72;5.40;;;;;21.30;101865.00;;;;2046780;28;20432;-48
2021/11/23 02:00:39;;;;;;;6.13;5.17;;;;;21.20;101870.00;;;;2046375;29;20203;-47
2021/11/23 02:01:39;;;;;;;6.47;5.87;;;;;21.20;101861.00;;;;2047187;28;20204;-47
2021/11/23 02:02:44;;;;;;;6.00;5.50;;;;;21.20;101862.00;;;;2046496;29;20208;-47
2021/11/23 02:03:45;;;;;;;5.93;5.43;;;;;21.20;101863.00;;;;2036218;29;20208;-47
2021/11/23 02:04:45;;;;;;;5.87;5.40;;;;;21.20;101861.00;;;;2046498;29;20189;-46
2021/11/23 02:05:47;;;;;;;5.50;5.00;;;;;21.20;101865.00;;;;2047308;29;20243;-47
2021/11/23 02:06:47;;;;;;;5.97;5.47;;;;;21.10;101869.00;;;;2047490;28;20669;-46
2021/11/23 02:07:48;;;;;;;6.10;5.50;;;;;21.20;101861.00;;;;2047267;29;20224;-46
2021/11/23 02:08:49;;;;;;;5.60;5.10;;;;;21.20;101818.00;;;;2047375;29;20188;-46
2021/11/23 02:09:49;;;;;;;5.50;5.00;;;;;21.20;101871.00;;;;2038376;29;20212;-46
2021/11/23 02:10:50;;;;;;;6.27;5.77;;;;;21.20;101870.00;;;;2037803;29;20192;-46
2021/11/23 02:11:50;;;;;;;5.47;4.97;;;;;21.20;101876.00;;;;2046906;29;20556;-47
2021/11/23 02:12:51;;;;;;;6.20;5.70;;;;;21.20;101870.00;;;;2047029;28;20720;-46
2021/11/23 02:13:54;;;;;;;5.90;5.30;;;;;21.20;101865.00;;;;2046406;29;20180;-47
2021/11/23 02:14:56;;;;;;;6.30;5.65;;;;;21.20;101872.00;;;;2038839;29;20620;-46
2021/11/23 02:15:57;;;;;;;5.77;5.27;;;;;21.20;101869.00;;;;2046353;28;20204;-46
2021/11/23 02:16:57;;;;;;;5.53;5.03;;;;;21.20;101873.00;;;;2054576;28;20183;-46
2021/11/23 02:17:58;;;;;;;5.70;5.20;;;;;21.20;101873.00;;;;2047132;29;20187;-47
2021/11/23 02:18:58;;;;;;;5.60;5.10;;;;;21.20;101871.00;;;;2047058;28;20901;-47
2021/11/23 02:19:59;;;;;;;5.10;4.70;;;;;21.20;101882.00;;;;2047236;28;20181;-48
2021/11/23 02:21:00;;;;;;;5.27;4.83;;;;;21.10;101865.00;;;;2046175;28;20291;-46
2021/11/23 02:22:00;;;;;;;5.73;5.20;;;;;21.10;101877.00;;;;2046190;29;20435;-48
2021/11/23 02:23:01;;;;;;;5.82;5.32;;;;;21.10;101870.00;;;;2046146;29;20701;-46
2021/11/23 02:24:02;;;;;;;5.00;4.60;;;;;21.10;101864.00;;;;2047118;28;20243;-44
2021/11/23 02:25:04;;;;;;;5.45;4.95;;;;;21.20;101879.00;;;;2047150;28;20190;-45
2021/11/23 02:26:04;;;;;;;5.20;4.80;;;;;21.20;101869.00;;;;2047188;28;20228;-46
2021/11/23 02:27:05;;;;;;;5.03;4.63;;;;;21.10;101869.00;;;;2047111;29;20175;-46
2021/11/23 02:28:07;;;;;;;5.43;4.97;;;;;21.10;101863.00;;;;2047066;28;20191;-46
2021/11/23 02:29:08;;;;;;;4.63;4.30;;;;;21.10;101860.00;;;;2046833;28;20203;-46
2021/11/23 02:30:10;;;;;;;4.70;4.30;;;;;21.10;101860.00;;;;2046809;29;20222;-48
2021/11/23 02:31:10;;;;;;;5.28;4.88;;;;;21.10;101861.00;;;;2046169;28;20180;-47
2021/11/23 02:32:11;;;;;;;5.90;5.40;;;;;21.10;101869.00;;;;2047047;28;20223;-47
2021/11/23 02:33:12;;;;;;;5.50;5.00;;;;;21.10;101864.00;;;;2046816;29;20223;-46
2021/11/23 02:34:13;;;;;;;6.38;5.85;;;;;21.10;101861.00;;;;2046977;28;20184;-46
2021/11/23 02:35:13;;;;;;;5.50;5.10;;;;;21.10;101861.00;;;;2047097;29;20199;-47
2021/11/23 02:36:14;;;;;;;5.07;4.67;;;;;21.10;101862.00;;;;2046399;29;20235;-46
2021/11/23 02:37:14;;;;;;;5.23;4.83;;;;;21.10;101862.00;;;;2046433;29;20177;-45
2021/11/23 02:38:17;;;;;;;5.13;4.67;;;;;21.10;101861.00;;;;2046267;29;20184;-45
2021/11/23 02:39:17;;;;;;;5.38;4.88;;;;;21.10;101858.00;;;;2046440;29;20184;-46
2021/11/23 02:40:18;;;;;;;9.70;5.23;;;;;21.10;101858.00;;;;2046724;29;20192;-47
2021/11/23 02:41:18;;;;;;;5.00;4.60;;;;;21.10;101869.00;;;;2046601;28;20625;-46
2021/11/23 02:42:19;;;;;;;5.43;5.03;;;;;21.10;101864.00;;;;2047086;28;20532;-46
2021/11/23 02:43:19;;;;;;;5.50;5.07;;;;;21.10;101865.00;;;;2046618;28;20738;-48
2021/11/23 02:44:20;;;;;;;5.43;5.03;;;;;21.10;101865.00;;;;2046431;29;20196;-46
2021/11/23 02:45:23;;;;;;;5.63;5.13;;;;;21.10;101870.00;;;;2046380;29;20192;-47
2021/11/23 02:46:24;;;;;;;5.43;4.93;;;;;21.10;101821.00;;;;2047115;28;20176;-45
2021/11/23 02:47:24;;;;;;;5.00;4.60;;;;;21.10;101853.00;;;;2046906;28;20184;-46
2021/11/23 02:48:25;;;;;;;5.23;4.73;;;;;21.10;101861.00;;;;2046703;28;20317;-47
2021/11/23 02:49:25;;;;;;;5.07;4.67;;;;;21.00;101859.00;;;;2046767;29;20323;-46
2021/11/23 02:50:26;;;;;;;5.03;4.40;;;;;21.00;101856.00;;;;2046024;28;20220;-48
2021/11/23 02:51:28;;;;;;;4.80;4.40;;;;;21.00;101850.00;;;;2046368;29;20195;-44
2021/11/23 02:52:31;;;;;;;5.22;4.72;;;;;21.00;101847.00;;;;2046493;29;20188;-46
2021/11/23 02:53:31;;;;;;;4.97;4.57;;;;;21.00;101850.00;;;;2046104;29;20235;-45
2021/11/23 02:54:32;;;;;;;4.90;4.50;;;;;21.00;101850.00;;;;2046277;29;20641;-48
2021/11/23 02:55:35;;;;;;;5.17;4.77;;;;;21.00;101841.00;;;;2047025;29;20191;-47
2021/11/23 02:56:36;;;;;;;5.00;4.60;;;;;21.00;101845.00;;;;2054334;28;20266;-48
2021/11/23 02:57:36;;;;;;;5.00;4.60;;;;;20.90;101841.00;;;;2053960;28;20667;-48
2021/11/23 02:58:37;;;;;;;4.63;4.23;;;;;21.00;101834.00;;;;2047200;28;20656;-46
2021/11/23 02:59:37;;;;;;;5.67;5.27;;;;;21.00;101846.00;;;;2046424;29;20683;-48
2021/11/23 03:00:39;;;;;;;5.53;5.13;;;;;21.00;101844.00;;;;2045514;29;20995;-46
2021/11/23 03:01:40;;;;;;;5.20;4.80;;;;;21.00;101848.00;;;;2046318;28;20209;-45
2021/11/23 03:02:40;;;;;;;5.63;5.20;;;;;21.00;101848.00;;;;2045906;29;20260;-46
2021/11/23 03:03:40;;;;;;;4.87;4.47;;;;;21.00;101849.00;;;;2046204;29;20833;-47
2021/11/23 03:04:41;;;;;;;5.10;4.70;;;;;21.00;101844.00;;;;2046370;29;20537;-47
2021/11/23 03:05:43;;;;;;;5.67;5.10;;;;;21.00;101840.00;;;;2046941;29;20644;-46
2021/11/23 03:06:45;;;;;;;4.88;4.47;;;;;21.00;101845.00;;;;2046319;29;20188;-45
2021/11/23 03:07:46;;;;;;;5.25;4.75;;;;;21.00;101849.00;;;;2046206;29;20389;-45
2021/11/23 03:08:47;;;;;;;5.18;4.75;;;;;21.00;101845.00;;;;2046955;28;20530;-47
2021/11/23 03:09:48;;;;;;;4.78;4.38;;;;;20.90;101842.00;;;;2046729;28;20187;-46
2021/11/23 03:10:48;;;;;;;5.20;4.70;;;;;21.00;101854.00;;;;2045479;29;20876;-45
2021/11/23 03:11:49;;;;;;;4.77;4.37;;;;;21.00;101848.00;;;;2046100;29;20679;-48
2021/11/23 03:12:50;;;;;;;4.47;4.17;;;;;21.00;101849.00;;;;2046019;29;20996;-48
2021/11/23 03:13:51;;;;;;;4.97;4.57;;;;;21.00;101851.00;;;;2046122;29;20185;-48
2021/11/23 03:14:52;;;;;;;4.70;4.30;;;;;21.00;101855.00;;;;2046701;29;20191;-47
2021/11/23 03:15:52;;;;;;;4.53;4.20;;;;;20.90;101851.00;;;;2046279;29;20206;-46
2021/11/23 03:16:53;;;;;;;4.37;4.07;;;;;21.00;101853.00;;;;2046338;29;20428;-47
2021/11/23 03:17:54;;;;;;;5.30;4.80;;;;;21.00;101852.00;;;;2053988;28;20223;-46
2021/11/23 03:18:54;;;;;;;4.53;4.23;;;;;21.00;101855.00;;;;2054257;28;20215;-44
2021/11/23 03:19:55;;;;;;;4.50;4.20;;;;;20.90;101859.00;;;;2046876;28;20183;-47
2021/11/23 03:20:56;;;;;;;4.40;4.07;;;;;20.90;101853.00;;;;2046120;28;20189;-48
2021/11/23 03:21:57;;;;;;;5.10;4.65;;;;;21.00;101846.00;;;;2046612;28;20293;-46
2021/11/23 03:22:58;;;;;;;4.97;4.50;;;;;20.90;101851.00;;;;2046181;29;20216;-48
2021/11/23 03:23:58;;;;;;;4.50;4.10;;;;;20.90;101846.00;;;;2046362;29;20713;-46
2021/11/23 03:24:59;;;;;;;4.60;4.20;;;;;20.90;101846.00;;;;2046620;29;20196;-46
2021/11/23 03:25:59;;;;;;;5.23;4.73;;;;;20.90;101838.00;;;;2046229;28;20184;-48
2021/11/23 03:27:00;;;;;;;5.33;4.83;;;;;21.00;101837.00;;;;2046560;29;20184;-46
2021/11/23 03:28:00;;;;;;;4.63;4.23;;;;;20.90;101838.00;;;;2048585;29;20191;-46
2021/11/23 03:29:01;;;;;;;5.10;4.57;;;;;20.90;101832.00;;;;2048735;28;20705;-45
2021/11/23 03:30:03;;;;;;;4.67;4.27;;;;;20.90;101842.00;;;;2048396;29;20211;-47
2021/11/23 03:31:03;;;;;;;4.65;4.13;;;;;20.90;101832.00;;;;2047536;28;20204;-45
2021/11/23 03:32:05;;;;;;;5.03;4.63;;;;;20.90;101841.00;;;;2048378;29;20189;-48
2021/11/23 03:33:06;;;;;;;4.85;4.45;;;;;20.90;101840.00;;;;2048535;28;20247;-46
2021/11/23 03:34:07;;;;;;;4.80;4.30;;;;;20.90;101835.00;;;;2048471;28;20192;-46
2021/11/23 03:35:07;;;;;;;4.67;4.27;;;;;20.90;101849.00;;;;2047776;29;20684;-46
2021/11/23 03:36:08;;;;;;;5.00;4.50;;;;;20.90;101841.00;;;;2047390;29;20681;-46
2021/11/23 03:37:10;;;;;;;5.20;4.80;;;;;20.90;101833.00;;;;2062707;23;20601;-47
2021/11/23 03:38:11;;;;;;;4.55;4.15;;;;;20.90;101837.00;;;;2056155;28;20184;-49
2021/11/23 03:39:12;;;;;;;4.88;4.47;;;;;20.90;101841.00;;;;2056365;28;20655;-49
2021/11/23 03:40:12;;;;;;;4.83;4.43;;;;;20.90;101845.00;;;;2055709;28;20275;-49
2021/11/23 03:41:12;;;;;;;4.40;4.10;;;;;20.90;101840.00;;;;2054520;28;20179;-48
2021/11/23 03:42:13;;;;;;;4.90;4.40;;;;;20.90;101831.00;;;;2054528;28;20180;-48
2021/11/23 03:43:13;;;;;;;5.03;4.50;;;;;20.90;101837.00;;;;2056325;28;20235;-48
2021/11/23 03:44:13;;;;;;;5.20;4.70;;;;;20.90;101830.00;;;;2056534;28;20803;-48
2021/11/23 03:45:14;;;;;;;4.77;4.37;;;;;20.90;101835.00;;;;2056622;28;20366;-48
2021/11/23 03:46:14;;;;;;;5.13;4.63;;;;;20.90;101827.00;;;;2056569;28;20176;-49
2021/11/23 03:47:15;;;;;;;4.30;4.00;;;;;20.90;101833.00;;;;2056208;28;20203;-49
2021/11/23 03:48:16;;;;;;;4.85;4.45;;;;;20.90;101831.00;;;;2056147;28;20764;-48
2021/11/23 03:49:16;;;;;;;5.60;4.63;;;;;20.80;101828.00;;;;2056495;28;20187;-49
2021/11/23 03:50:17;;;;;;;4.10;3.80;;;;;20.80;101831.00;;;;2055944;28;20208;-48
2021/11/23 03:51:17;;;;;;;4.40;4.10;;;;;20.80;101831.00;;;;2055885;28;20200;-48
2021/11/23 03:52:18;;;;;;;4.60;4.20;;;;;20.80;101844.00;;;;2056475;28;20467;-48
2021/11/23 03:53:18;;;;;;;4.57;4.17;;;;;20.90;101830.00;;;;2056509;28;20211;-49
2021/11/23 03:54:18;;;;;;;5.23;4.77;;;;;20.90;101837.00;;;;2056429;28;20188;-49
2021/11/23 03:55:19;;;;;;;4.97;4.50;;;;;20.90;101832.00;;;;2056385;28;20179;-49
2021/11/23 03:56:19;;;;;;;4.40;4.00;;;;;20.90;101834.00;;;;2056070;28;20193;-48
2021/11/23 03:57:20;;;;;;;4.90;4.50;;;;;20.90;101840.00;;;;2056097;28;20195;-48
2021/11/23 03:58:21;;;;;;;4.68;4.32;;;;;20.80;101835.00;;;;2056479;28;20552;-49
2021/11/23 03:59:21;;;;;;;4.20;3.90;;;;;20.90;101852.00;;;;2056454;28;20191;-49
2021/11/23 04:00:22;;;;;;;4.80;4.40;;;;;20.80;101834.00;;;;2055978;28;20191;-48
2021/11/23 04:01:22;;;;;;;5.20;4.70;;;;;20.80;101840.00;;;;2056143;28;20175;-48
2021/11/23 04:02:23;;;;;;;4.90;4.40;;;;;20.80;101832.00;;;;2056556;28;20190;-48
2021/11/23 04:03:23;;;;;;;5.32;4.82;;;;;20.90;101837.00;;;;2056414;28;20223;-47
2021/11/23 04:04:24;;;;;;;4.40;4.10;;;;;20.80;101836.00;;;;2056439;28;20266;-48
2021/11/23 04:05:24;;;;;;;4.70;4.30;;;;;20.80;101835.00;;;;2056511;28;20190;-48
2021/11/23 04:06:25;;;;;;;4.90;4.40;;;;;20.90;101831.00;;;;2056451;28;20175;-48
2021/11/23 04:07:25;;;;;;;4.83;4.43;;;;;20.90;101832.00;;;;2056203;28;20591;-49
2021/11/23 04:08:25;;;;;;;5.77;4.70;;;;;20.80;101827.00;;;;2056409;28;20183;-49
2021/11/23 04:09:26;;;;;;;5.03;4.53;;;;;20.80;101826.00;;;;2056004;28;20198;-48
2021/11/23 04:10:26;;;;;;;4.80;4.40;;;;;20.80;101824.00;;;;2055275;28;20211;-48
2021/11/23 04:11:26;;;;;;;4.80;4.40;;;;;20.80;101806.00;;;;2056088;28;20194;-48
2021/11/23 04:12:27;;;;;;;4.43;4.03;;;;;20.80;101827.00;;;;2056529;28;20219;-49
2021/11/23 04:13:27;;;;;;;4.33;3.93;;;;;20.80;101821.00;;;;2056274;28;20202;-49
2021/11/23 04:14:27;;;;;;;4.17;3.77;;;;;20.80;101818.00;;;;2056329;28;20176;-48
2021/11/23 04:15:28;;;;;;;4.67;4.27;;;;;20.70;101816.00;;;;2055654;28;20188;-48
2021/11/23 04:16:28;;;;;;;4.83;4.30;;;;;20.70;101825.00;;;;2055792;28;20254;-48
2021/11/23 04:17:28;;;;;;;5.03;4.63;;;;;20.80;101824.00;;;;2056156;28;20651;-49
2021/11/23 04:18:29;;;;;;;4.90;4.50;;;;;20.80;101830.00;;;;2056441;28;20551;-48
2021/11/23 04:19:29;;;;;;;4.87;4.47;;;;;20.80;101823.00;;;;2055965;28;20207;-48
2021/11/23 04:20:30;;;;;;;4.30;3.97;;;;;20.80;101826.00;;;;2054775;28;20172;-49
2021/11/23 04:21:30;;;;;;;4.47;4.07;;;;;20.80;101820.00;;;;2055684;28;20184;-48
2021/11/23 04:22:30;;;;;;;4.47;4.17;;;;;20.80;101819.00;;;;2056084;28;20187;-49
2021/11/23 04:23:30;;;;;;;4.90;4.50;;;;;20.80;101823.00;;;;2056180;28;20211;-48
2021/11/23 04:24:31;;;;;;;4.73;4.33;;;;;20.80;101824.00;;;;2055972;28;20176;-48
2021/11/23 04:25:31;;;;;;;4.63;4.23;;;;;20.80;101824.00;;;;2056138;28;20230;-49
2021/11/23 04:26:32;;;;;;;5.00;4.57;;;;;20.80;101825.00;;;;2055986;28;20238;-47
2021/11/23 04:27:33;;;;;;;4.90;4.50;;;;;20.80;101821.00;;;;2056188;28;20561;-49
2021/11/23 04:28:33;;;;;;;4.20;3.90;;;;;20.80;101825.00;;;;2056277;28;20180;-48
2021/11/23 04:29:34;;;;;;;4.40;4.00;;;;;20.70;101831.00;;;;2056323;28;20411;-48
2021/11/23 04:30:34;;;;;;;4.57;4.17;;;;;20.80;101826.00;;;;2055192;28;20706;-48
2021/11/23 04:31:34;;;;;;;4.47;4.07;;;;;20.70;101829.00;;;;2056227;28;20657;-48
2021/11/23 04:32:35;;;;;;;5.17;4.70;;;;;20.80;101834.00;;;;2056197;28;20624;-47
2021/11/23 04:33:35;;;;;;;4.70;4.10;;;;;20.80;101820.00;;;;2056379;28;20171;-48
2021/11/23 04:34:35;;;;;;;5.13;4.73;;;;;20.70;101828.00;;;;2055727;28;20179;-48
2021/11/23 04:35:36;;;;;;;4.70;4.27;;;;;20.70;101822.00;;;;2056078;28;20179;-49
2021/11/23 04:36:36;;;;;;;4.60;4.20;;;;;20.70;101830.00;;;;2056126;28;20203;-48
2021/11/23 04:37:36;;;;;;;4.90;4.47;;;;;20.80;101826.00;;;;2055425;28;20180;-49
2021/11/23 04:38:37;;;;;;;5.60;5.00;;;;;20.70;101824.00;;;;2055894;28;20896;-48
2021/11/23 04:39:37;;;;;;;4.47;4.07;;;;;20.70;101820.00;;;;2056056;28;20188;-48
2021/11/23 04:40:37;;;;;;;4.40;4.10;;;;;20.70;101823.00;;;;2054972;28;20187;-48
2021/11/23 04:41:39;;;;;;;4.33;4.03;;;;;20.70;101823.00;;;;2052429;28;20176;-48
2021/11/23 04:42:39;;;;;;;4.45;4.05;;;;;20.70;101821.00;;;;2056116;28;20183;-48
2021/11/23 04:43:40;;;;;;;5.57;4.47;;;;;20.70;101833.00;;;;2056170;28;20528;-49
2021/11/23 04:44:40;;;;;;;4.27;3.97;;;;;20.70;101823.00;;;;2056112;28;20231;-47
2021/11/23 04:45:40;;;;;;;4.20;3.90;;;;;20.70;101821.00;;;;2055666;28;20172;-48
2021/11/23 04:46:41;;;;;;;5.20;4.80;;;;;20.70;101824.00;;;;2056008;28;20659;-48
2021/11/23 04:47:41;;;;;;;5.50;5.00;;;;;20.60;101831.00;;;;2056045;28;20242;-48
2021/11/23 04:48:42;;;;;;;4.20;3.87;;;;;20.70;101816.00;;;;2055963;28;20180;-49
2021/11/23 04:49:42;;;;;;;5.03;4.63;;;;;20.70;101820.00;;;;2056027;28;20172;-48
2021/11/23 04:50:43;;;;;;;5.10;4.57;;;;;20.70;101818.00;;;;2055280;28;20632;-49
2021/11/23 04:51:43;;;;;;;5.00;4.50;;;;;20.70;101823.00;;;;2055834;28;20204;-49
2021/11/23 04:52:43;;;;;;;4.40;4.10;;;;;20.70;101823.00;;;;2055915;28;20227;-48
2021/11/23 04:53:44;;;;;;;5.67;4.70;;;;;20.70;101823.00;;;;2056078;28;20246;-49
2021/11/23 04:54:44;;;;;;;4.83;4.43;;;;;20.70;101826.00;;;;2055623;28;20178;-49
2021/11/23 04:55:45;;;;;;;4.37;3.97;;;;;20.70;101817.00;;;;2055774;28;20226;-48
2021/11/23 04:56:45;;;;;;;4.80;4.40;;;;;20.70;101819.00;;;;2055976;28;20322;-47
2021/11/23 04:57:46;;;;;;;4.83;4.43;;;;;20.70;101814.00;;;;2055775;28;20180;-49
2021/11/23 04:58:46;;;;;;;5.37;4.87;;;;;20.70;101818.00;;;;2056081;28;20184;-49
2021/11/23 04:59:46;;;;;;;4.70;4.20;;;;;20.70;101818.00;;;;2056006;28;20582;-49